sensor_id;sensor_type;location;lat;lon;timestamp;temperature;humidity
25668;DHT22;18003;-33.830;151.202;2023-04-29T00:01:12;19.70;99.90
25668;DHT22;18003;-33.830;151.202;2023-04-29T00:03:42;19.70;99.90
25668;DHT22;18003;-33.830;151.202;2023-04-29T00:06:12;19.70;99.90
25668;DHT22;18003;-33.830;151.202;2023-04-29T00:08:43;19.70;99.90
25668;DHT22;18003;-33.830;151.202;2023-04-29T00:11:13;19.70;99.90
25668;DHT22;18003;-33.830;151.202;2023-04-29T00:13:43;19.70;99.90
25668;DHT22;18003;-33.830;151.202;2023-04-29T00:16:13;19.70;99.90
25668;DHT22;18003;-33.830;151.202;2023-04-29T00:18:43;19.70;99.90
25668;DHT22;18003;-33.830;151.202;2023-04-29T00:21:16;19.70;99.90
25668;DHT22;18003;-33.830;151.202;2023-04-29T00:23:47;19.70;99.90
25668;DHT22;18003;-33.830;151.202;2023-04-29T00:26:18;19.70;99.90
25668;DHT22;18003;-33.830;151.202;2023-04-29T00:28:49;19.70;99.90
25668;DHT22;18003;-33.830;151.202;2023-04-29T00:31:20;19.70;99.90
25668;DHT22;18003;-33.830;151.202;2023-04-29T00:33:50;19.70;99.90
25668;DHT22;18003;-33.830;151.202;2023-04-29T00:36:21;19.70;99.90
25668;DHT22;18003;-33.830;151.202;2023-04-29T00:38:52;19.70;99.90
25668;DHT22;18003;-33.830;151.202;2023-04-29T00:41:21;19.70;99.90
25668;DHT22;18003;-33.830;151.202;2023-04-29T00:43:52;19.70;99.90
25668;DHT22;18003;-33.830;151.202;2023-04-29T00:46:23;19.80;99.90
25668;DHT22;18003;-33.830;151.202;2023-04-29T00:48:53;19.90;99.90
25668;DHT22;18003;-33.830;151.202;2023-04-29T00:51:23;20.00;99.90
25668;DHT22;18003;-33.830;151.202;2023-04-29T00:53:54;20.10;99.90
25668;DHT22;18003;-33.830;151.202;2023-04-29T00:56:24;20.10;99.90
25668;DHT22;18003;-33.830;151.202;2023-04-29T00:58:55;20.20;99.90
25668;DHT22;18003;-33.830;151.202;2023-04-29T01:01:25;20.20;99.90
25668;DHT22;18003;-33.830;151.202;2023-04-29T01:03:56;20.30;99.90
25668;DHT22;18003;-33.830;151.202;2023-04-29T01:06:47;20.30;99.90
25668;DHT22;18003;-33.830;151.202;2023-04-29T01:09:37;20.30;99.90
25668;DHT22;18003;-33.830;151.202;2023-04-29T01:14:39;20.30;99.90
25668;DHT22;18003;-33.830;151.202;2023-04-29T01:17:18;20.30;99.90
25668;DHT22;18003;-33.830;151.202;2023-04-29T01:19:49;20.30;99.90
25668;DHT22;18003;-33.830;151.202;2023-04-29T01:22:20;20.30;99.90
25668;DHT22;18003;-33.830;151.202;2023-04-29T01:24:51;20.30;99.90
25668;DHT22;18003;-33.830;151.202;2023-04-29T01:30:34;20.30;99.90
25668;DHT22;18003;-33.830;151.202;2023-04-29T01:35:40;20.30;99.90
25668;DHT22;18003;-33.830;151.202;2023-04-29T01:38:16;20.30;99.90
25668;DHT22;18003;-33.830;151.202;2023-04-29T01:41:08;20.30;99.90
25668;DHT22;18003;-33.830;151.202;2023-04-29T01:43:36;20.30;99.90
25668;DHT22;18003;-33.830;151.202;2023-04-29T01:46:12;20.30;99.90
25668;DHT22;18003;-33.830;151.202;2023-04-29T01:48:39;20.30;99.90
25668;DHT22;18003;-33.830;151.202;2023-04-29T01:51:10;20.30;99.90
25668;DHT22;18003;-33.830;151.202;2023-04-29T01:53:40;20.30;99.90
25668;DHT22;18003;-33.830;151.202;2023-04-29T01:56:10;20.30;99.90
25668;DHT22;18003;-33.830;151.202;2023-04-29T01:58:40;20.30;99.90
25668;DHT22;18003;-33.830;151.202;2023-04-29T02:01:11;20.30;99.90
25668;DHT22;18003;-33.830;151.202;2023-04-29T02:03:41;20.30;99.90
25668;DHT22;18003;-33.830;151.202;2023-04-29T02:06:11;20.30;99.90
25668;DHT22;18003;-33.830;151.202;2023-04-29T02:08:41;20.30;99.90
25668;DHT22;18003;-33.830;151.202;2023-04-29T02:11:11;20.30;99.90
25668;DHT22;18003;-33.830;151.202;2023-04-29T02:13:41;20.30;99.90
25668;DHT22;18003;-33.830;151.202;2023-04-29T02:16:13;20.30;99.90
25668;DHT22;18003;-33.830;151.202;2023-04-29T02:18:43;20.30;99.90
25668;DHT22;18003;-33.830;151.202;2023-04-29T02:21:13;20.30;99.90
25668;DHT22;18003;-33.830;151.202;2023-04-29T02:23:43;20.30;99.90
25668;DHT22;18003;-33.830;151.202;2023-04-29T02:26:13;20.30;99.90
25668;DHT22;18003;-33.830;151.202;2023-04-29T02:28:43;20.30;99.90
25668;DHT22;18003;-33.830;151.202;2023-04-29T02:31:13;20.30;99.90
25668;DHT22;18003;-33.830;151.202;2023-04-29T02:33:43;20.30;99.90
25668;DHT22;18003;-33.830;151.202;2023-04-29T02:36:14;20.30;99.90
25668;DHT22;18003;-33.830;151.202;2023-04-29T02:38:45;20.30;99.90
25668;DHT22;18003;-33.830;151.202;2023-04-29T02:41:17;20.30;99.90
25668;DHT22;18003;-33.830;151.202;2023-04-29T02:43:47;20.20;99.90
25668;DHT22;18003;-33.830;151.202;2023-04-29T02:46:17;20.30;99.90
25668;DHT22;18003;-33.830;151.202;2023-04-29T02:48:47;20.20;99.90
25668;DHT22;18003;-33.830;151.202;2023-04-29T02:51:18;20.20;99.90
25668;DHT22;18003;-33.830;151.202;2023-04-29T02:53:48;20.20;99.90
25668;DHT22;18003;-33.830;151.202;2023-04-29T02:56:19;20.20;99.90
25668;DHT22;18003;-33.830;151.202;2023-04-29T02:58:49;20.20;99.90
25668;DHT22;18003;-33.830;151.202;2023-04-29T03:01:19;20.20;99.90
25668;DHT22;18003;-33.830;151.202;2023-04-29T03:03:50;20.20;99.90
25668;DHT22;18003;-33.830;151.202;2023-04-29T03:06:21;20.20;99.90
25668;DHT22;18003;-33.830;151.202;2023-04-29T03:08:51;20.20;99.90
25668;DHT22;18003;-33.830;151.202;2023-04-29T03:11:21;20.10;99.90
25668;DHT22;18003;-33.830;151.202;2023-04-29T03:13:51;20.10;99.90
25668;DHT22;18003;-33.830;151.202;2023-04-29T03:16:22;20.20;99.90
25668;DHT22;18003;-33.830;151.202;2023-04-29T03:18:52;20.10;99.90
25668;DHT22;18003;-33.830;151.202;2023-04-29T03:21:22;20.10;99.90
25668;DHT22;18003;-33.830;151.202;2023-04-29T03:23:56;20.20;99.90
25668;DHT22;18003;-33.830;151.202;2023-04-29T03:26:27;20.20;99.90
25668;DHT22;18003;-33.830;151.202;2023-04-29T03:28:57;20.20;99.90
25668;DHT22;18003;-33.830;151.202;2023-04-29T03:31:27;20.20;99.90
25668;DHT22;18003;-33.830;151.202;2023-04-29T03:33:57;20.20;99.90
25668;DHT22;18003;-33.830;151.202;2023-04-29T03:36:27;20.20;99.90
25668;DHT22;18003;-33.830;151.202;2023-04-29T03:38:57;20.20;99.90
25668;DHT22;18003;-33.830;151.202;2023-04-29T03:41:27;20.20;99.90
25668;DHT22;18003;-33.830;151.202;2023-04-29T03:43:57;20.20;99.90
25668;DHT22;18003;-33.830;151.202;2023-04-29T03:46:28;20.20;99.90
25668;DHT22;18003;-33.830;151.202;2023-04-29T03:48:58;20.20;99.90
25668;DHT22;18003;-33.830;151.202;2023-04-29T03:51:28;20.20;99.90
25668;DHT22;18003;-33.830;151.202;2023-04-29T03:53:58;20.20;99.90
25668;DHT22;18003;-33.830;151.202;2023-04-29T03:56:29;20.20;99.90
25668;DHT22;18003;-33.830;151.202;2023-04-29T03:58:58;20.20;99.90
25668;DHT22;18003;-33.830;151.202;2023-04-29T04:01:28;20.20;99.90
25668;DHT22;18003;-33.830;151.202;2023-04-29T04:03:58;20.20;99.90
25668;DHT22;18003;-33.830;151.202;2023-04-29T04:06:29;20.20;99.90
25668;DHT22;18003;-33.830;151.202;2023-04-29T04:08:59;20.20;99.90
25668;DHT22;18003;-33.830;151.202;2023-04-29T04:11:30;20.20;99.90
25668;DHT22;18003;-33.830;151.202;2023-04-29T04:14:00;20.20;99.90
25668;DHT22;18003;-33.830;151.202;2023-04-29T04:16:30;20.10;99.90
25668;DHT22;18003;-33.830;151.202;2023-04-29T04:19:00;20.20;99.90
25668;DHT22;18003;-33.830;151.202;2023-04-29T04:21:30;20.10;99.90
25668;DHT22;18003;-33.830;151.202;2023-04-29T04:24:00;20.20;99.90
25668;DHT22;18003;-33.830;151.202;2023-04-29T04:26:30;20.20;99.90
25668;DHT22;18003;-33.830;151.202;2023-04-29T04:29:00;20.20;99.90
25668;DHT22;18003;-33.830;151.202;2023-04-29T04:31:30;20.10;99.90
25668;DHT22;18003;-33.830;151.202;2023-04-29T04:34:00;20.10;99.90
25668;DHT22;18003;-33.830;151.202;2023-04-29T04:36:30;20.10;99.90
25668;DHT22;18003;-33.830;151.202;2023-04-29T04:39:00;20.10;99.90
25668;DHT22;18003;-33.830;151.202;2023-04-29T04:41:30;20.10;99.90
25668;DHT22;18003;-33.830;151.202;2023-04-29T04:44:00;20.10;99.90
25668;DHT22;18003;-33.830;151.202;2023-04-29T04:46:30;20.10;99.90
25668;DHT22;18003;-33.830;151.202;2023-04-29T04:49:00;20.10;99.90
25668;DHT22;18003;-33.830;151.202;2023-04-29T04:51:33;20.10;99.90
25668;DHT22;18003;-33.830;151.202;2023-04-29T04:54:03;20.10;99.90
25668;DHT22;18003;-33.830;151.202;2023-04-29T04:56:33;20.10;99.90
25668;DHT22;18003;-33.830;151.202;2023-04-29T04:59:04;20.10;99.90
25668;DHT22;18003;-33.830;151.202;2023-04-29T05:01:35;20.10;99.90
25668;DHT22;18003;-33.830;151.202;2023-04-29T05:04:05;20.10;99.90
25668;DHT22;18003;-33.830;151.202;2023-04-29T05:06:35;20.10;99.90
25668;DHT22;18003;-33.830;151.202;2023-04-29T05:09:06;20.10;99.90
25668;DHT22;18003;-33.830;151.202;2023-04-29T05:11:36;20.10;99.90
25668;DHT22;18003;-33.830;151.202;2023-04-29T05:14:06;20.10;99.90
25668;DHT22;18003;-33.830;151.202;2023-04-29T05:16:36;20.10;99.90
25668;DHT22;18003;-33.830;151.202;2023-04-29T05:19:06;20.00;99.90
25668;DHT22;18003;-33.830;151.202;2023-04-29T05:21:36;20.10;99.90
25668;DHT22;18003;-33.830;151.202;2023-04-29T05:24:07;20.00;99.90
25668;DHT22;18003;-33.830;151.202;2023-04-29T05:26:38;20.10;99.90
25668;DHT22;18003;-33.830;151.202;2023-04-29T05:29:10;20.10;99.90
25668;DHT22;18003;-33.830;151.202;2023-04-29T05:31:40;20.10;99.90
25668;DHT22;18003;-33.830;151.202;2023-04-29T05:34:10;20.10;99.90
25668;DHT22;18003;-33.830;151.202;2023-04-29T05:36:41;20.10;99.90
25668;DHT22;18003;-33.830;151.202;2023-04-29T05:39:12;20.10;99.90
25668;DHT22;18003;-33.830;151.202;2023-04-29T05:41:42;20.10;99.90
25668;DHT22;18003;-33.830;151.202;2023-04-29T05:44:12;20.10;99.90
25668;DHT22;18003;-33.830;151.202;2023-04-29T05:46:42;20.10;99.90
25668;DHT22;18003;-33.830;151.202;2023-04-29T05:49:13;20.00;99.90
25668;DHT22;18003;-33.830;151.202;2023-04-29T05:51:43;20.10;99.90
25668;DHT22;18003;-33.830;151.202;2023-04-29T05:54:13;20.10;99.90
25668;DHT22;18003;-33.830;151.202;2023-04-29T05:56:43;20.10;99.90
25668;DHT22;18003;-33.830;151.202;2023-04-29T05:59:13;20.00;99.90
25668;DHT22;18003;-33.830;151.202;2023-04-29T06:01:43;20.00;99.90
25668;DHT22;18003;-33.830;151.202;2023-04-29T06:04:13;20.00;99.90
25668;DHT22;18003;-33.830;151.202;2023-04-29T06:06:44;20.00;99.90
25668;DHT22;18003;-33.830;151.202;2023-04-29T06:09:15;20.00;99.90
25668;DHT22;18003;-33.830;151.202;2023-04-29T06:11:47;20.00;99.90
25668;DHT22;18003;-33.830;151.202;2023-04-29T06:14:17;20.00;99.90
25668;DHT22;18003;-33.830;151.202;2023-04-29T06:16:47;20.00;99.90
25668;DHT22;18003;-33.830;151.202;2023-04-29T06:19:18;20.00;99.90
25668;DHT22;18003;-33.830;151.202;2023-04-29T06:21:49;20.00;99.90
25668;DHT22;18003;-33.830;151.202;2023-04-29T06:24:19;20.00;99.90
25668;DHT22;18003;-33.830;151.202;2023-04-29T06:26:49;20.00;99.90
25668;DHT22;18003;-33.830;151.202;2023-04-29T06:29:19;20.00;99.90
25668;DHT22;18003;-33.830;151.202;2023-04-29T06:31:49;20.00;99.90
25668;DHT22;18003;-33.830;151.202;2023-04-29T06:34:19;20.00;99.90
25668;DHT22;18003;-33.830;151.202;2023-04-29T06:36:49;20.00;99.90
25668;DHT22;18003;-33.830;151.202;2023-04-29T06:39:19;20.00;99.90
25668;DHT22;18003;-33.830;151.202;2023-04-29T06:41:49;20.00;99.90
25668;DHT22;18003;-33.830;151.202;2023-04-29T06:44:19;20.00;99.90
25668;DHT22;18003;-33.830;151.202;2023-04-29T06:46:49;20.00;99.90
25668;DHT22;18003;-33.830;151.202;2023-04-29T06:49:20;20.00;99.90
25668;DHT22;18003;-33.830;151.202;2023-04-29T06:51:50;20.00;99.90
25668;DHT22;18003;-33.830;151.202;2023-04-29T06:54:20;20.00;99.90
25668;DHT22;18003;-33.830;151.202;2023-04-29T06:56:50;20.00;99.90
25668;DHT22;18003;-33.830;151.202;2023-04-29T06:59:20;20.00;99.90
25668;DHT22;18003;-33.830;151.202;2023-04-29T07:01:50;20.00;99.90
25668;DHT22;18003;-33.830;151.202;2023-04-29T07:04:21;20.00;99.90
25668;DHT22;18003;-33.830;151.202;2023-04-29T07:06:51;20.00;99.90
25668;DHT22;18003;-33.830;151.202;2023-04-29T07:09:21;20.00;99.90
25668;DHT22;18003;-33.830;151.202;2023-04-29T07:11:52;20.00;99.90
25668;DHT22;18003;-33.830;151.202;2023-04-29T07:14:23;20.00;99.90
25668;DHT22;18003;-33.830;151.202;2023-04-29T07:16:56;20.00;99.90
25668;DHT22;18003;-33.830;151.202;2023-04-29T07:19:25;19.90;99.90
25668;DHT22;18003;-33.830;151.202;2023-04-29T07:21:55;19.90;99.90
25668;DHT22;18003;-33.830;151.202;2023-04-29T07:24:25;19.90;99.90
25668;DHT22;18003;-33.830;151.202;2023-04-29T07:26:55;20.00;99.90
25668;DHT22;18003;-33.830;151.202;2023-04-29T07:29:25;19.90;99.90
25668;DHT22;18003;-33.830;151.202;2023-04-29T07:31:55;19.90;99.90
25668;DHT22;18003;-33.830;151.202;2023-04-29T07:34:24;19.90;99.90
25668;DHT22;18003;-33.830;151.202;2023-04-29T07:36:54;19.90;99.90
25668;DHT22;18003;-33.830;151.202;2023-04-29T07:39:24;19.90;99.90
25668;DHT22;18003;-33.830;151.202;2023-04-29T07:41:54;19.90;99.90
25668;DHT22;18003;-33.830;151.202;2023-04-29T07:44:24;19.90;99.90
25668;DHT22;18003;-33.830;151.202;2023-04-29T07:46:53;19.90;99.90
25668;DHT22;18003;-33.830;151.202;2023-04-29T07:49:23;19.90;99.90
25668;DHT22;18003;-33.830;151.202;2023-04-29T07:51:53;19.90;99.90
25668;DHT22;18003;-33.830;151.202;2023-04-29T07:54:23;19.90;99.90
25668;DHT22;18003;-33.830;151.202;2023-04-29T07:56:53;19.90;99.90
25668;DHT22;18003;-33.830;151.202;2023-04-29T07:59:23;19.90;99.90
25668;DHT22;18003;-33.830;151.202;2023-04-29T08:01:53;19.90;99.90
25668;DHT22;18003;-33.830;151.202;2023-04-29T08:04:22;19.90;99.90
25668;DHT22;18003;-33.830;151.202;2023-04-29T08:06:52;19.90;99.90
25668;DHT22;18003;-33.830;151.202;2023-04-29T08:09:22;19.90;99.90
25668;DHT22;18003;-33.830;151.202;2023-04-29T08:11:52;19.90;99.90
25668;DHT22;18003;-33.830;151.202;2023-04-29T08:14:22;19.90;99.90
25668;DHT22;18003;-33.830;151.202;2023-04-29T08:16:52;19.90;99.90
25668;DHT22;18003;-33.830;151.202;2023-04-29T08:19:22;19.90;99.90
25668;DHT22;18003;-33.830;151.202;2023-04-29T08:21:52;19.90;99.90
25668;DHT22;18003;-33.830;151.202;2023-04-29T08:24:22;19.90;99.90
25668;DHT22;18003;-33.830;151.202;2023-04-29T08:26:52;19.90;99.90
25668;DHT22;18003;-33.830;151.202;2023-04-29T08:29:22;19.90;99.90
25668;DHT22;18003;-33.830;151.202;2023-04-29T08:31:52;19.90;99.90
25668;DHT22;18003;-33.830;151.202;2023-04-29T08:34:22;19.80;99.90
25668;DHT22;18003;-33.830;151.202;2023-04-29T08:36:52;19.80;99.90
25668;DHT22;18003;-33.830;151.202;2023-04-29T08:39:22;19.80;99.90
25668;DHT22;18003;-33.830;151.202;2023-04-29T08:41:53;19.80;99.90
25668;DHT22;18003;-33.830;151.202;2023-04-29T08:44:24;19.80;99.90
25668;DHT22;18003;-33.830;151.202;2023-04-29T08:46:55;19.80;99.90
25668;DHT22;18003;-33.830;151.202;2023-04-29T08:49:26;19.80;99.90
25668;DHT22;18003;-33.830;151.202;2023-04-29T08:51:56;19.80;99.90
25668;DHT22;18003;-33.830;151.202;2023-04-29T08:54:26;19.80;99.90
25668;DHT22;18003;-33.830;151.202;2023-04-29T08:56:56;19.80;99.90
25668;DHT22;18003;-33.830;151.202;2023-04-29T08:59:28;19.80;99.90
25668;DHT22;18003;-33.830;151.202;2023-04-29T09:01:59;19.80;99.90
25668;DHT22;18003;-33.830;151.202;2023-04-29T09:07:17;19.80;99.90
25668;DHT22;18003;-33.830;151.202;2023-04-29T09:09:48;19.80;99.90
25668;DHT22;18003;-33.830;151.202;2023-04-29T09:12:18;19.80;99.90
25668;DHT22;18003;-33.830;151.202;2023-04-29T09:14:49;19.80;99.90
25668;DHT22;18003;-33.830;151.202;2023-04-29T09:17:19;19.80;99.90
25668;DHT22;18003;-33.830;151.202;2023-04-29T09:19:49;19.80;99.90
25668;DHT22;18003;-33.830;151.202;2023-04-29T09:22:19;19.80;99.90
25668;DHT22;18003;-33.830;151.202;2023-04-29T09:24:49;19.70;99.90
25668;DHT22;18003;-33.830;151.202;2023-04-29T09:27:28;19.80;99.90
25668;DHT22;18003;-33.830;151.202;2023-04-29T09:30:01;20.00;99.90
25668;DHT22;18003;-33.830;151.202;2023-04-29T09:32:31;20.00;99.90
25668;DHT22;18003;-33.830;151.202;2023-04-29T09:35:22;20.20;99.90
25668;DHT22;18003;-33.830;151.202;2023-04-29T09:37:53;20.20;99.90
25668;DHT22;18003;-33.830;151.202;2023-04-29T09:40:30;20.30;99.90
25668;DHT22;18003;-33.830;151.202;2023-04-29T09:43:01;20.30;99.90
25668;DHT22;18003;-33.830;151.202;2023-04-29T09:45:38;20.40;99.90
25668;DHT22;18003;-33.830;151.202;2023-04-29T09:48:09;20.40;99.90
25668;DHT22;18003;-33.830;151.202;2023-04-29T09:50:41;20.40;99.90
25668;DHT22;18003;-33.830;151.202;2023-04-29T09:53:11;20.40;99.90
25668;DHT22;18003;-33.830;151.202;2023-04-29T09:58:35;20.40;99.90
25668;DHT22;18003;-33.830;151.202;2023-04-29T10:01:06;20.40;99.90
25668;DHT22;18003;-33.830;151.202;2023-04-29T10:03:36;20.40;99.90
25668;DHT22;18003;-33.830;151.202;2023-04-29T10:06:07;20.40;99.90
25668;DHT22;18003;-33.830;151.202;2023-04-29T10:08:37;20.40;99.90
25668;DHT22;18003;-33.830;151.202;2023-04-29T10:11:07;20.40;99.90
25668;DHT22;18003;-33.830;151.202;2023-04-29T10:13:39;20.40;99.90
25668;DHT22;18003;-33.830;151.202;2023-04-29T10:18:51;20.40;99.90
25668;DHT22;18003;-33.830;151.202;2023-04-29T10:21:31;20.40;99.90
25668;DHT22;18003;-33.830;151.202;2023-04-29T10:23:54;20.40;99.90
25668;DHT22;18003;-33.830;151.202;2023-04-29T10:26:29;20.40;99.90
25668;DHT22;18003;-33.830;151.202;2023-04-29T10:28:55;20.40;99.90
25668;DHT22;18003;-33.830;151.202;2023-04-29T10:31:27;20.40;99.90
25668;DHT22;18003;-33.830;151.202;2023-04-29T10:34:00;20.40;99.90
25668;DHT22;18003;-33.830;151.202;2023-04-29T10:36:30;20.40;99.90
25668;DHT22;18003;-33.830;151.202;2023-04-29T10:39:02;20.40;99.90
25668;DHT22;18003;-33.830;151.202;2023-04-29T10:41:35;20.40;99.90
25668;DHT22;18003;-33.830;151.202;2023-04-29T10:44:04;20.40;99.90
25668;DHT22;18003;-33.830;151.202;2023-04-29T10:46:34;20.30;99.90
25668;DHT22;18003;-33.830;151.202;2023-04-29T10:49:05;20.30;99.90
25668;DHT22;18003;-33.830;151.202;2023-04-29T10:51:42;20.30;99.90
25668;DHT22;18003;-33.830;151.202;2023-04-29T10:54:16;20.30;99.90
25668;DHT22;18003;-33.830;151.202;2023-04-29T10:56:49;20.30;99.90
25668;DHT22;18003;-33.830;151.202;2023-04-29T11:02:06;20.20;99.90
25668;DHT22;18003;-33.830;151.202;2023-04-29T11:05:05;20.30;99.90
25668;DHT22;18003;-33.830;151.202;2023-04-29T11:07:08;20.20;99.90
25668;DHT22;18003;-33.830;151.202;2023-04-29T11:09:37;20.30;99.90
25668;DHT22;18003;-33.830;151.202;2023-04-29T11:12:11;20.20;99.90
25668;DHT22;18003;-33.830;151.202;2023-04-29T11:14:42;20.20;99.90
25668;DHT22;18003;-33.830;151.202;2023-04-29T11:17:16;20.20;99.90
25668;DHT22;18003;-33.830;151.202;2023-04-29T11:19:52;20.20;99.90
25668;DHT22;18003;-33.830;151.202;2023-04-29T11:22:28;20.20;99.90
25668;DHT22;18003;-33.830;151.202;2023-04-29T11:25:04;20.20;99.90
25668;DHT22;18003;-33.830;151.202;2023-04-29T11:27:35;20.20;99.90
25668;DHT22;18003;-33.830;151.202;2023-04-29T11:30:06;20.20;99.90
25668;DHT22;18003;-33.830;151.202;2023-04-29T11:32:37;20.20;99.90
25668;DHT22;18003;-33.830;151.202;2023-04-29T11:35:17;20.20;99.90
25668;DHT22;18003;-33.830;151.202;2023-04-29T11:37:50;20.20;99.90
25668;DHT22;18003;-33.830;151.202;2023-04-29T11:40:20;20.10;99.90
25668;DHT22;18003;-33.830;151.202;2023-04-29T11:42:50;20.10;99.90
25668;DHT22;18003;-33.830;151.202;2023-04-29T11:45:20;20.10;99.90
25668;DHT22;18003;-33.830;151.202;2023-04-29T11:47:50;20.10;99.90
25668;DHT22;18003;-33.830;151.202;2023-04-29T11:50:20;20.10;99.90
25668;DHT22;18003;-33.830;151.202;2023-04-29T11:52:50;20.10;99.90
25668;DHT22;18003;-33.830;151.202;2023-04-29T11:55:20;20.10;99.90
25668;DHT22;18003;-33.830;151.202;2023-04-29T11:57:50;20.10;99.90
25668;DHT22;18003;-33.830;151.202;2023-04-29T12:00:19;20.10;99.90
25668;DHT22;18003;-33.830;151.202;2023-04-29T12:02:49;20.10;99.90
25668;DHT22;18003;-33.830;151.202;2023-04-29T12:05:19;20.00;99.90
25668;DHT22;18003;-33.830;151.202;2023-04-29T12:07:49;20.00;99.90
25668;DHT22;18003;-33.830;151.202;2023-04-29T12:10:20;20.00;99.90
25668;DHT22;18003;-33.830;151.202;2023-04-29T12:12:49;20.00;99.90
25668;DHT22;18003;-33.830;151.202;2023-04-29T12:15:20;20.00;99.90
25668;DHT22;18003;-33.830;151.202;2023-04-29T12:17:49;20.00;99.90
25668;DHT22;18003;-33.830;151.202;2023-04-29T12:20:19;20.00;99.90
25668;DHT22;18003;-33.830;151.202;2023-04-29T12:22:49;20.00;99.90
25668;DHT22;18003;-33.830;151.202;2023-04-29T12:25:23;20.00;99.90
25668;DHT22;18003;-33.830;151.202;2023-04-29T12:27:51;20.00;99.90
25668;DHT22;18003;-33.830;151.202;2023-04-29T12:30:20;20.00;99.90
25668;DHT22;18003;-33.830;151.202;2023-04-29T12:32:51;20.00;99.90
25668;DHT22;18003;-33.830;151.202;2023-04-29T12:35:21;19.90;99.90
25668;DHT22;18003;-33.830;151.202;2023-04-29T12:37:51;19.80;99.90
25668;DHT22;18003;-33.830;151.202;2023-04-29T12:40:21;19.70;99.90
25668;DHT22;18003;-33.830;151.202;2023-04-29T12:42:52;19.80;99.90
25668;DHT22;18003;-33.830;151.202;2023-04-29T12:45:32;19.80;99.90
25668;DHT22;18003;-33.830;151.202;2023-04-29T12:48:02;19.80;99.90
25668;DHT22;18003;-33.830;151.202;2023-04-29T12:50:39;19.80;99.90
25668;DHT22;18003;-33.830;151.202;2023-04-29T12:53:09;19.80;99.90
25668;DHT22;18003;-33.830;151.202;2023-04-29T12:55:38;19.80;99.90
25668;DHT22;18003;-33.830;151.202;2023-04-29T12:58:08;19.80;99.90
25668;DHT22;18003;-33.830;151.202;2023-04-29T13:00:38;19.70;99.90
25668;DHT22;18003;-33.830;151.202;2023-04-29T13:03:08;19.70;99.90
25668;DHT22;18003;-33.830;151.202;2023-04-29T13:05:38;19.70;99.90
25668;DHT22;18003;-33.830;151.202;2023-04-29T13:08:07;19.70;99.90
25668;DHT22;18003;-33.830;151.202;2023-04-29T13:10:37;19.70;99.90
25668;DHT22;18003;-33.830;151.202;2023-04-29T13:13:07;19.70;99.90
25668;DHT22;18003;-33.830;151.202;2023-04-29T13:15:37;19.60;99.90
25668;DHT22;18003;-33.830;151.202;2023-04-29T13:18:08;19.60;99.90
25668;DHT22;18003;-33.830;151.202;2023-04-29T13:20:38;19.60;99.90
25668;DHT22;18003;-33.830;151.202;2023-04-29T13:23:08;19.60;99.90
25668;DHT22;18003;-33.830;151.202;2023-04-29T13:25:39;19.60;99.90
25668;DHT22;18003;-33.830;151.202;2023-04-29T13:28:10;19.60;99.90
25668;DHT22;18003;-33.830;151.202;2023-04-29T13:30:40;19.60;99.90
25668;DHT22;18003;-33.830;151.202;2023-04-29T13:33:10;19.60;99.90
25668;DHT22;18003;-33.830;151.202;2023-04-29T13:35:40;19.60;99.90
25668;DHT22;18003;-33.830;151.202;2023-04-29T13:38:10;19.50;99.90
25668;DHT22;18003;-33.830;151.202;2023-04-29T13:40:40;19.50;99.90
25668;DHT22;18003;-33.830;151.202;2023-04-29T13:43:10;19.50;99.90
25668;DHT22;18003;-33.830;151.202;2023-04-29T13:45:39;19.50;99.90
25668;DHT22;18003;-33.830;151.202;2023-04-29T13:48:09;19.50;99.90
25668;DHT22;18003;-33.830;151.202;2023-04-29T13:50:39;19.40;99.90
25668;DHT22;18003;-33.830;151.202;2023-04-29T13:53:10;19.40;99.90
25668;DHT22;18003;-33.830;151.202;2023-04-29T13:55:40;19.50;99.90
25668;DHT22;18003;-33.830;151.202;2023-04-29T13:58:10;19.40;99.90
25668;DHT22;18003;-33.830;151.202;2023-04-29T14:00:40;19.40;99.90
25668;DHT22;18003;-33.830;151.202;2023-04-29T14:03:10;19.50;99.90
25668;DHT22;18003;-33.830;151.202;2023-04-29T14:05:41;19.40;99.90
25668;DHT22;18003;-33.830;151.202;2023-04-29T14:08:11;19.40;99.90
25668;DHT22;18003;-33.830;151.202;2023-04-29T14:10:41;19.40;99.90
25668;DHT22;18003;-33.830;151.202;2023-04-29T14:13:11;19.40;99.90
25668;DHT22;18003;-33.830;151.202;2023-04-29T14:15:41;19.50;99.90
25668;DHT22;18003;-33.830;151.202;2023-04-29T14:18:11;19.40;99.90
25668;DHT22;18003;-33.830;151.202;2023-04-29T14:20:41;19.40;99.90
25668;DHT22;18003;-33.830;151.202;2023-04-29T14:23:11;19.40;99.90
25668;DHT22;18003;-33.830;151.202;2023-04-29T14:25:41;19.40;99.90
25668;DHT22;18003;-33.830;151.202;2023-04-29T14:28:11;19.30;99.90
25668;DHT22;18003;-33.830;151.202;2023-04-29T14:30:42;19.40;99.90
25668;DHT22;18003;-33.830;151.202;2023-04-29T14:33:12;19.40;99.90
25668;DHT22;18003;-33.830;151.202;2023-04-29T14:35:42;19.40;99.90
25668;DHT22;18003;-33.830;151.202;2023-04-29T14:38:12;19.30;99.90
25668;DHT22;18003;-33.830;151.202;2023-04-29T14:40:42;19.30;99.90
25668;DHT22;18003;-33.830;151.202;2023-04-29T14:43:12;19.40;99.90
25668;DHT22;18003;-33.830;151.202;2023-04-29T14:45:42;19.40;99.90
25668;DHT22;18003;-33.830;151.202;2023-04-29T14:48:12;19.30;99.90
25668;DHT22;18003;-33.830;151.202;2023-04-29T14:50:42;19.30;99.90
25668;DHT22;18003;-33.830;151.202;2023-04-29T14:53:12;19.30;99.90
25668;DHT22;18003;-33.830;151.202;2023-04-29T14:55:42;19.30;99.90
25668;DHT22;18003;-33.830;151.202;2023-04-29T14:58:12;19.30;99.90
25668;DHT22;18003;-33.830;151.202;2023-04-29T15:00:43;19.30;99.90
25668;DHT22;18003;-33.830;151.202;2023-04-29T15:03:12;19.30;99.90
25668;DHT22;18003;-33.830;151.202;2023-04-29T15:05:42;19.30;99.90
25668;DHT22;18003;-33.830;151.202;2023-04-29T15:08:13;19.30;99.90
25668;DHT22;18003;-33.830;151.202;2023-04-29T15:10:43;19.30;99.90
25668;DHT22;18003;-33.830;151.202;2023-04-29T15:13:14;19.30;99.90
25668;DHT22;18003;-33.830;151.202;2023-04-29T15:15:44;19.30;99.90
25668;DHT22;18003;-33.830;151.202;2023-04-29T15:18:14;19.30;99.90
25668;DHT22;18003;-33.830;151.202;2023-04-29T15:20:44;19.20;99.90
25668;DHT22;18003;-33.830;151.202;2023-04-29T15:23:15;19.20;99.90
25668;DHT22;18003;-33.830;151.202;2023-04-29T15:25:45;19.20;99.90
25668;DHT22;18003;-33.830;151.202;2023-04-29T15:28:15;19.20;99.90